Weather at Cut Bank International Airport

Public forecast

Using degrees Fahrenheit for public forecast. Weather courtesy of forecast.io.

Current aviation weather report (METAR) for Cut Bank International Airport

2024/07/22 13:56 (retrieved 41 minutes ago)

KCTB 221356Z AUTO 34003KT 7SM CLR 17/11 A3016 RMK AO2 SLP178 T01720111

Aviation forecast (TAF) for Cut Bank International Airport

2024/07/22 12:22 (retrieved 2 hours ago)

TAF KCTB 221120Z 2212/2312 VRB05KT 6SM HZ FEW250 FM221800 12011KT 5SM FU FEW250 FM230300 VRB04KT 6SM HZ FEW250